Terminal Aerodrome Forecast
Issued by NWS

Home | Current Version | Previous Version | Text Only | Print | Product List | Glossary On
Versions: 1 2 3 4 5 6 7 8 9 10 11 12 13 14 15 16 17 18 19 20 21 22 23 24 25 26 27 28
000
FTUS44 KHGX 252333
TAFSGR
TAF
KSGR 252333Z 2600/2624 VRB05KT P6SM SKC
     FM260900 14003KT 3SM BR SCT010
      TEMPO 2610/2613 2SM BR SCT005
     FM261400 15008KT P6SM SCT025
      TEMPO 2614/2617 BKN022
     FM261700 17010KT P6SM SCT035
     FM262100 17012G22KT P6SM BKN035=

USA.gov is the U.S. government's official web portal to all federal, state and local government web resources and services.